Time;durP1;ratioP1;P1;durP2;ratioP2;P2;SDS_P1;SDS_P2;PMS_P1;PMS_P2;Temp;Humidity;BMP_temperature;BMP_pressure;BME280_temperature;BME280_humidity;BME280_pressure;Samples;Min_cycle;Max_cycle;Signal;HPM_P1;HPM_P2
2023/05/19 00:00:33;;;;;;;5.97;3.30;;;11.50;69.80;;;;;;4988559;28;20573;-71
2023/05/19 00:03:00;;;;;;;4.70;2.85;;;11.60;69.40;;;;;;4988727;28;20430;-71
2023/05/19 00:05:29;;;;;;;4.55;3.28;;;11.50;70.10;;;;;;4997202;28;20568;-72
2023/05/19 00:07:59;;;;;;;4.30;3.20;;;11.50;70.20;;;;;;5006513;28;20486;-70
2023/05/19 00:10:30;;;;;;;5.90;3.60;;;11.50;70.60;;;;;;4993558;28;20509;-70
2023/05/19 00:12:57;;;;;;;4.40;3.40;;;11.50;71.20;;;;;;4973549;28;20434;-69
2023/05/19 00:15:24;;;;;;;5.68;3.30;;;11.50;71.10;;;;;;4986632;28;20457;-70
2023/05/19 00:17:54;;;;;;;5.93;3.90;;;11.40;71.30;;;;;;4995571;28;20436;-70
2023/05/19 00:20:21;;;;;;;4.87;3.80;;;11.40;71.00;;;;;;4990941;28;20767;-70
2023/05/19 00:22:47;;;;;;;4.22;3.40;;;11.30;71.90;;;;;;4980989;28;20426;-69
2023/05/19 00:25:15;;;;;;;5.18;3.35;;;11.30;71.80;;;;;;5002351;28;20805;-69
2023/05/19 00:27:42;;;;;;;4.10;3.50;;;11.30;71.50;;;;;;4989604;28;20797;-69
2023/05/19 00:30:10;;;;;;;5.10;3.03;;;11.30;71.40;;;;;;4989647;28;20777;-69
2023/05/19 00:32:37;;;;;;;5.30;3.10;;;11.30;71.20;;;;;;4991278;28;20429;-71
2023/05/19 00:35:05;;;;;;;5.90;3.80;;;11.20;72.00;;;;;;5007460;28;20419;-69
2023/05/19 00:37:32;;;;;;;5.10;3.15;;;11.20;71.50;;;;;;5002115;28;20446;-69
2023/05/19 00:39:59;;;;;;;4.40;3.10;;;11.10;71.20;;;;;;5004917;28;20531;-69
2023/05/19 00:42:27;;;;;;;6.22;3.08;;;11.10;71.40;;;;;;4986636;28;20636;-69
2023/05/19 00:44:54;;;;;;;6.10;3.10;;;11.10;70.50;;;;;;5001439;28;20740;-70
2023/05/19 00:47:21;;;;;;;4.30;2.85;;;11.10;71.20;;;;;;4990778;28;20433;-70
2023/05/19 00:49:48;;;;;;;4.90;3.10;;;11.10;70.50;;;;;;4991260;28;20426;-69
2023/05/19 00:52:15;;;;;;;4.25;2.60;;;11.10;69.90;;;;;;4991371;28;20718;-69
2023/05/19 00:54:44;;;;;;;4.23;3.10;;;11.00;69.80;;;;;;4990318;28;20442;-70
2023/05/19 00:57:12;;;;;;;3.70;2.75;;;11.00;70.60;;;;;;4991933;28;20435;-69
2023/05/19 00:59:41;;;;;;;6.65;3.38;;;11.00;71.00;;;;;;4999145;28;20434;-69
2023/05/19 01:02:08;;;;;;;4.50;3.20;;;11.00;70.00;;;;;;4991974;28;20937;-69
2023/05/19 01:04:38;;;;;;;6.07;3.80;;;10.90;70.50;;;;;;5008946;28;20431;-69
2023/05/19 01:07:05;;;;;;;4.93;3.60;;;10.90;71.90;;;;;;4992970;28;20913;-69
2023/05/19 01:09:32;;;;;;;4.35;3.30;;;10.80;72.20;;;;;;4990058;28;20888;-69
2023/05/19 01:12:00;;;;;;;5.18;3.85;;;10.80;73.30;;;;;;4993542;28;20496;-71
2023/05/19 01:14:28;;;;;;;6.35;3.50;;;10.90;73.70;;;;;;4997615;28;20436;-69
2023/05/19 01:17:04;;;;;;;4.35;3.40;;;10.80;73.10;;;;;;5003976;28;20440;-70
2023/05/19 01:19:55;;;;;;;6.07;3.58;;;10.80;73.50;;;;;;4986320;28;20487;-70
2023/05/19 01:22:41;;;;;;;3.75;3.25;;;10.70;73.20;;;;;;4990805;28;20457;-69
2023/05/19 01:25:32;;;;;;;6.05;4.07;;;10.60;74.00;;;;;;4992555;28;20921;-69
2023/05/19 01:28:36;;;;;;;5.00;3.78;;;10.60;74.70;;;;;;4990987;28;20494;-69
2023/05/19 01:31:06;;;;;;;5.60;3.42;;;10.60;73.50;;;;;;4970207;28;20500;-69
2023/05/19 01:33:34;;;;;;;6.10;3.60;;;10.50;74.20;;;;;;4988024;28;20433;-70
2023/05/19 01:36:03;;;;;;;5.47;3.72;;;10.50;74.50;;;;;;4989940;28;20821;-69
2023/05/19 01:38:33;;;;;;;6.10;4.40;;;10.50;74.80;;;;;;5000636;28;20679;-69
2023/05/19 01:41:02;;;;;;;5.90;3.70;;;10.50;75.70;;;;;;4987010;28;20423;-70
2023/05/19 01:43:29;;;;;;;5.15;3.45;;;10.50;75.60;;;;;;4985324;28;20422;-70
2023/05/19 01:45:57;;;;;;;4.90;3.80;;;10.40;75.70;;;;;;4985298;28;20837;-71
2023/05/19 01:48:26;;;;;;;6.13;3.78;;;10.40;76.30;;;;;;4984548;28;20477;-71
2023/05/19 01:50:56;;;;;;;5.50;3.90;;;10.40;77.40;;;;;;4986380;28;20530;-71
2023/05/19 01:53:22;;;;;;;6.13;4.00;;;10.40;76.90;;;;;;4992351;28;20531;-71
2023/05/19 01:55:56;;;;;;;5.75;4.40;;;10.40;77.10;;;;;;4990367;28;20438;-70
2023/05/19 01:58:31;;;;;;;4.57;3.92;;;10.40;78.20;;;;;;4978621;28;20525;-71
2023/05/19 02:01:08;;;;;;;5.15;4.50;;;10.40;78.00;;;;;;4989426;28;20450;-71
2023/05/19 02:03:54;;;;;;;4.55;3.70;;;10.30;77.40;;;;;;4989850;28;20414;-71
2023/05/19 02:06:32;;;;;;;6.65;4.00;;;10.30;77.50;;;;;;4990521;28;20473;-70
2023/05/19 02:09:04;;;;;;;5.35;3.90;;;10.20;77.20;;;;;;5000015;28;20495;-71
2023/05/19 02:11:37;;;;;;;4.80;3.97;;;10.10;77.10;;;;;;4984279;28;20846;-70
2023/05/19 02:14:08;;;;;;;5.72;4.00;;;10.00;78.00;;;;;;4992482;28;20532;-69
2023/05/19 02:16:37;;;;;;;4.97;3.50;;;10.00;79.40;;;;;;4986779;28;20512;-68
2023/05/19 02:19:05;;;;;;;4.43;4.00;;;9.90;79.30;;;;;;4984806;28;20533;-70
2023/05/19 02:21:31;;;;;;;4.55;3.90;;;9.90;79.70;;;;;;4984511;28;20449;-70
2023/05/19 02:23:58;;;;;;;5.50;3.95;;;9.90;80.70;;;;;;4989987;28;20428;-69
2023/05/19 02:26:25;;;;;;;7.03;3.95;;;9.90;81.00;;;;;;4985509;28;20464;-69
2023/05/19 02:28:52;;;;;;;4.60;3.80;;;9.90;80.70;;;;;;4985150;28;20770;-70
2023/05/19 02:31:19;;;;;;;4.40;3.50;;;9.80;80.40;;;;;;4996449;28;20459;-69
2023/05/19 02:33:46;;;;;;;6.25;4.10;;;9.80;81.90;;;;;;5001705;28;20420;-71
2023/05/19 02:36:14;;;;;;;6.63;3.90;;;9.70;81.40;;;;;;4980855;28;20518;-71
2023/05/19 02:38:40;;;;;;;4.03;3.70;;;9.70;81.40;;;;;;4988453;28;20489;-71
2023/05/19 02:41:07;;;;;;;5.63;4.30;;;9.60;81.30;;;;;;4982546;28;20528;-71
2023/05/19 02:43:34;;;;;;;6.22;4.07;;;9.60;82.20;;;;;;4980207;28;20442;-71
2023/05/19 02:46:00;;;;;;;6.87;4.30;;;9.60;83.20;;;;;;4984281;28;20870;-70
2023/05/19 02:48:27;;;;;;;5.97;4.77;;;9.60;83.50;;;;;;4984698;28;20480;-71
2023/05/19 02:50:54;;;;;;;6.85;4.32;;;9.60;83.90;;;;;;4984464;28;20589;-69
2023/05/19 02:53:22;;;;;;;6.93;4.70;;;9.60;84.50;;;;;;4970898;28;20426;-69
2023/05/19 02:55:49;;;;;;;4.85;4.45;;;9.70;85.20;;;;;;4983630;28;20777;-69
2023/05/19 02:58:15;;;;;;;7.15;4.22;;;9.60;85.30;;;;;;4983335;28;20422;-70
2023/05/19 03:00:43;;;;;;;7.05;4.47;;;9.70;85.00;;;;;;4984787;28;20433;-69
2023/05/19 03:03:10;;;;;;;7.40;4.40;;;9.70;85.20;;;;;;4978667;28;20760;-70
2023/05/19 03:05:37;;;;;;;6.85;4.20;;;9.60;84.60;;;;;;5000994;28;20457;-71
2023/05/19 03:08:05;;;;;;;5.88;4.28;;;9.50;84.30;;;;;;4987533;28;20446;-69
2023/05/19 03:10:33;;;;;;;6.75;4.63;;;9.40;84.20;;;;;;4984611;28;20469;-71
2023/05/19 03:12:59;;;;;;;5.20;4.32;;;9.40;85.20;;;;;;4991662;28;20431;-70
2023/05/19 03:15:26;;;;;;;5.20;4.20;;;9.30;85.10;;;;;;4990452;28;20558;-71
2023/05/19 03:17:53;;;;;;;5.97;4.45;;;9.30;85.60;;;;;;4983868;28;20462;-71
2023/05/19 03:20:20;;;;;;;6.45;4.22;;;9.30;86.00;;;;;;4993691;28;20438;-71
2023/05/19 03:22:46;;;;;;;6.00;4.05;;;9.20;85.60;;;;;;4982336;28;20526;-69
2023/05/19 03:25:13;;;;;;;5.07;4.50;;;9.30;86.00;;;;;;4986455;28;20438;-70
2023/05/19 03:27:42;;;;;;;6.60;4.25;;;9.20;85.80;;;;;;4984272;28;20517;-70
2023/05/19 03:30:10;;;;;;;4.85;4.35;;;9.20;85.80;;;;;;4987188;28;20883;-70
2023/05/19 03:32:37;;;;;;;4.72;4.10;;;9.20;86.30;;;;;;4997639;28;20426;-69
2023/05/19 03:35:04;;;;;;;7.50;4.55;;;9.20;86.20;;;;;;4988464;28;20504;-69
2023/05/19 03:37:31;;;;;;;5.55;4.10;;;9.10;86.00;;;;;;4985415;28;20469;-70
2023/05/19 03:39:58;;;;;;;4.70;4.20;;;9.10;86.20;;;;;;4983352;28;20766;-70
2023/05/19 03:42:24;;;;;;;5.05;4.20;;;9.10;86.70;;;;;;4987351;28;20523;-70
2023/05/19 03:44:52;;;;;;;6.78;4.85;;;9.00;86.70;;;;;;4987852;28;20448;-70
2023/05/19 03:47:19;;;;;;;5.28;4.53;;;9.00;87.00;;;;;;4984208;28;20430;-71
2023/05/19 03:49:46;;;;;;;5.20;4.70;;;9.10;88.10;;;;;;4996418;28;20529;-70
2023/05/19 03:52:13;;;;;;;6.63;4.68;;;9.10;88.60;;;;;;4983909;28;20418;-71
2023/05/19 03:54:41;;;;;;;5.40;4.90;;;9.10;88.40;;;;;;4981869;28;20446;-70
2023/05/19 03:57:08;;;;;;;6.30;4.13;;;9.10;88.80;;;;;;4984359;28;20423;-69
2023/05/19 03:59:36;;;;;;;4.77;3.70;;;9.20;88.10;;;;;;4987522;28;20722;-69
2023/05/19 04:02:04;;;;;;;5.97;4.88;;;9.20;87.00;;;;;;4992137;28;20485;-71
2023/05/19 04:04:31;;;;;;;6.15;4.10;;;9.20;87.40;;;;;;5001893;28;20416;-71
2023/05/19 04:06:57;;;;;;;5.10;3.60;;;9.20;87.10;;;;;;4987020;28;20904;-70
2023/05/19 04:09:24;;;;;;;4.95;3.20;;;9.30;86.10;;;;;;4988056;28;20422;-71
2023/05/19 04:11:51;;;;;;;4.10;3.45;;;9.40;86.20;;;;;;4992136;28;20526;-69
2023/05/19 04:14:18;;;;;;;6.22;3.90;;;9.40;84.20;;;;;;4992764;28;20436;-70
2023/05/19 04:16:45;;;;;;;5.20;3.40;;;9.40;85.00;;;;;;4996316;28;20433;-71
2023/05/19 04:19:13;;;;;;;5.63;3.42;;;9.40;84.20;;;;;;4984882;28;20418;-71
2023/05/19 04:21:40;;;;;;;4.32;3.38;;;9.40;83.90;;;;;;4983214;28;20522;-71
2023/05/19 04:24:07;;;;;;;6.05;3.50;;;9.40;84.60;;;;;;4982449;28;20460;-70
2023/05/19 04:26:34;;;;;;;6.45;3.10;;;9.40;83.30;;;;;;4990102;28;20436;-70
2023/05/19 04:29:03;;;;;;;4.88;3.20;;;9.40;83.50;;;;;;4982921;28;20529;-70
2023/05/19 04:31:30;;;;;;;5.70;3.40;;;9.50;84.00;;;;;;4984392;28;20460;-71
2023/05/19 04:34:00;;;;;;;7.60;4.00;;;9.60;83.70;;;;;;4996439;28;20912;-71
2023/05/19 04:36:29;;;;;;;4.07;3.03;;;9.60;83.80;;;;;;4992970;28;20457;-71
2023/05/19 04:39:01;;;;;;;6.15;3.42;;;9.70;83.70;;;;;;4987912;28;20454;-70
2023/05/19 04:41:28;;;;;;;6.05;3.00;;;9.70;83.10;;;;;;4998429;28;20547;-72
2023/05/19 04:43:56;;;;;;;4.32;2.92;;;9.80;81.70;;;;;;5001447;28;20478;-70
2023/05/19 04:46:24;;;;;;;5.30;3.00;;;9.80;81.60;;;;;;4991775;28;20434;-70
2023/05/19 04:48:52;;;;;;;7.20;3.15;;;9.90;81.70;;;;;;4998233;28;20442;-70
2023/05/19 04:51:19;;;;;;;4.80;3.00;;;9.90;81.10;;;;;;4990233;28;20423;-70
2023/05/19 04:53:48;;;;;;;5.97;3.20;;;9.90;80.70;;;;;;4993481;28;20521;-70
2023/05/19 04:56:15;;;;;;;5.63;3.20;;;10.00;80.90;;;;;;4988340;28;20457;-70
2023/05/19 04:58:43;;;;;;;5.25;3.10;;;10.00;80.30;;;;;;4991091;28;20461;-71
2023/05/19 05:01:12;;;;;;;5.55;4.50;;;10.00;80.70;;;;;;4996356;28;20421;-71
2023/05/19 05:03:39;;;;;;;4.80;3.30;;;10.10;80.70;;;;;;5000333;28;20802;-70
2023/05/19 05:06:07;;;;;;;4.97;3.60;;;10.10;81.40;;;;;;4992490;28;20425;-71
2023/05/19 05:08:36;;;;;;;5.10;3.60;;;10.20;82.10;;;;;;4989705;28;20437;-71
2023/05/19 05:11:05;;;;;;;5.50;3.40;;;10.20;82.10;;;;;;4993317;28;20419;-70
2023/05/19 05:13:32;;;;;;;6.30;3.75;;;10.20;82.10;;;;;;4993695;28;20849;-70
2023/05/19 05:15:59;;;;;;;6.40;3.90;;;10.20;81.80;;;;;;4990591;28;20418;-71
2023/05/19 05:18:27;;;;;;;5.97;3.70;;;10.30;82.10;;;;;;5001305;28;20456;-70
2023/05/19 05:20:54;;;;;;;6.07;3.77;;;10.30;82.50;;;;;;4992881;28;20443;-71
2023/05/19 05:23:23;;;;;;;5.10;3.65;;;10.30;82.90;;;;;;4989767;28;20862;-70
2023/05/19 05:25:50;;;;;;;5.88;3.95;;;10.30;82.40;;;;;;4993073;28;20990;-70
2023/05/19 05:28:18;;;;;;;6.55;4.13;;;10.30;81.70;;;;;;4988488;28;20608;-70
2023/05/19 05:30:45;;;;;;;4.75;3.45;;;10.30;82.50;;;;;;4988231;28;20520;-71
2023/05/19 05:33:12;;;;;;;6.95;3.92;;;10.30;82.90;;;;;;4991785;28;20424;-70
2023/05/19 05:35:39;;;;;;;6.47;3.70;;;10.40;82.40;;;;;;4979644;28;20458;-70
2023/05/19 05:38:06;;;;;;;4.97;3.50;;;10.40;81.90;;;;;;4984942;28;20426;-71
2023/05/19 05:40:33;;;;;;;7.35;3.75;;;10.50;82.00;;;;;;4981840;28;20434;-71
2023/05/19 05:43:00;;;;;;;6.50;3.70;;;10.50;82.50;;;;;;4991147;28;20461;-70
2023/05/19 05:45:28;;;;;;;4.55;3.65;;;10.60;82.00;;;;;;4985552;28;20862;-71
2023/05/19 05:47:55;;;;;;;5.40;4.13;;;10.60;81.70;;;;;;4991754;28;20446;-71
2023/05/19 05:50:23;;;;;;;5.65;4.10;;;10.60;81.80;;;;;;4984120;28;20442;-71
2023/05/19 05:52:51;;;;;;;4.28;3.83;;;10.60;81.90;;;;;;4985963;28;20438;-71
2023/05/19 05:55:18;;;;;;;7.65;4.10;;;10.70;81.30;;;;;;4989371;28;20540;-70
2023/05/19 05:57:47;;;;;;;4.80;3.50;;;10.80;80.70;;;;;;4988877;28;20538;-70
2023/05/19 06:00:15;;;;;;;5.18;3.60;;;10.90;80.60;;;;;;4987285;28;20466;-67
2023/05/19 06:02:46;;;;;;;7.45;3.53;;;10.90;79.70;;;;;;4990835;28;20480;-68
2023/05/19 06:05:13;;;;;;;5.35;3.35;;;11.00;78.50;;;;;;4986820;28;20509;-68
2023/05/19 06:07:39;;;;;;;5.63;3.10;;;11.00;77.60;;;;;;4987036;28;20534;-68
2023/05/19 06:10:07;;;;;;;6.63;3.50;;;11.10;76.60;;;;;;5014071;23;20472;-70
2023/05/19 06:12:34;;;;;;;5.40;3.60;;;11.20;74.40;;;;;;5007299;28;20437;-71
2023/05/19 06:15:03;;;;;;;7.13;3.67;;;11.20;74.80;;;;;;5010109;28;20811;-73
2023/05/19 06:17:29;;;;;;;5.05;3.17;;;11.30;74.80;;;;;;5010220;28;20437;-73
2023/05/19 06:19:57;;;;;;;4.90;3.67;;;11.30;75.20;;;;;;5004791;28;20765;-73
2023/05/19 06:22:24;;;;;;;5.63;4.30;;;11.40;75.10;;;;;;5009317;28;20550;-72
2023/05/19 06:24:51;;;;;;;6.40;3.20;;;11.50;74.60;;;;;;5013840;28;20472;-73
2023/05/19 06:27:18;;;;;;;4.80;2.70;;;11.60;72.90;;;;;;5010418;28;20439;-72
2023/05/19 06:29:44;;;;;;;5.82;3.33;;;11.60;72.70;;;;;;5006265;28;20451;-76
2023/05/19 06:32:11;;;;;;;5.07;3.20;;;11.70;72.70;;;;;;5004377;28;20927;-70
2023/05/19 06:34:39;;;;;;;4.85;3.30;;;11.80;72.00;;;;;;5009305;28;20432;-70
2023/05/19 06:37:07;;;;;;;5.88;3.25;;;11.80;70.30;;;;;;5005685;28;20436;-70
2023/05/19 06:39:34;;;;;;;5.32;2.95;;;11.90;70.40;;;;;;5003777;28;20436;-71
2023/05/19 06:42:00;;;;;;;3.85;2.75;;;11.90;69.90;;;;;;5008270;28;20440;-71
2023/05/19 06:44:27;;;;;;;4.47;3.03;;;12.00;70.00;;;;;;5008740;28;20629;-71
2023/05/19 06:46:54;;;;;;;6.10;2.90;;;12.10;69.40;;;;;;5007186;28;20436;-71
2023/05/19 06:49:20;;;;;;;4.78;3.00;;;12.30;69.60;;;;;;5008626;28;20459;-71
2023/05/19 06:51:48;;;;;;;5.07;3.10;;;12.40;68.20;;;;;;5008444;28;20435;-71
2023/05/19 06:54:16;;;;;;;5.63;3.10;;;12.50;67.10;;;;;;5009475;28;20479;-72
2023/05/19 06:56:42;;;;;;;5.30;3.15;;;12.60;66.30;;;;;;5022645;28;20420;-71
2023/05/19 06:59:09;;;;;;;5.60;3.00;;;12.70;65.40;;;;;;5011846;28;20435;-70
2023/05/19 07:01:36;;;;;;;4.40;2.90;;;12.90;65.20;;;;;;5007712;28;20441;-71
2023/05/19 07:04:03;;;;;;;4.18;2.70;;;13.00;65.20;;;;;;5007392;28;20776;-71
2023/05/19 07:06:30;;;;;;;5.40;2.90;;;13.10;64.30;;;;;;5007994;28;20428;-71
2023/05/19 07:08:56;;;;;;;4.80;2.90;;;13.30;63.50;;;;;;5025597;28;20802;-72
2023/05/19 07:11:25;;;;;;;5.00;2.90;;;13.40;62.90;;;;;;5008568;28;20432;-71
2023/05/19 07:13:51;;;;;;;5.17;2.80;;;13.50;61.20;;;;;;5009828;28;20478;-71
2023/05/19 07:16:18;;;;;;;4.87;2.30;;;13.60;61.40;;;;;;5002218;28;20433;-71
2023/05/19 07:18:45;;;;;;;4.47;3.10;;;13.70;61.00;;;;;;5009627;28;20437;-70
2023/05/19 07:21:11;;;;;;;3.63;2.15;;;13.80;61.10;;;;;;5009309;28;20757;-69
2023/05/19 07:23:38;;;;;;;3.88;2.10;;;14.10;59.30;;;;;;5026139;28;20432;-70
2023/05/19 07:26:05;;;;;;;4.93;2.50;;;14.10;58.80;;;;;;5020883;28;20440;-75
2023/05/19 07:28:34;;;;;;;4.30;2.55;;;14.20;58.20;;;;;;5014110;28;20796;-76
2023/05/19 07:31:01;;;;;;;4.28;2.40;;;14.30;57.80;;;;;;5007861;28;20432;-77
2023/05/19 07:33:27;;;;;;;3.95;2.40;;;14.50;57.10;;;;;;5011204;28;20430;-78
2023/05/19 07:35:54;;;;;;;4.20;2.20;;;14.50;57.40;;;;;;5008345;28;20440;-74
2023/05/19 07:38:21;;;;;;;3.45;2.10;;;14.70;56.90;;;;;;5017635;28;20427;-76
2023/05/19 07:40:48;;;;;;;6.05;2.65;;;14.80;56.40;;;;;;5016441;28;20443;-75
2023/05/19 07:43:15;;;;;;;4.65;2.45;;;14.90;55.40;;;;;;5006791;28;20467;-73
2023/05/19 07:45:43;;;;;;;4.80;2.20;;;15.00;55.10;;;;;;5010681;28;20417;-75
2023/05/19 07:48:10;;;;;;;3.78;2.30;;;15.10;55.20;;;;;;5018509;28;20921;-72
2023/05/19 07:50:36;;;;;;;4.20;2.05;;;15.20;54.70;;;;;;5008492;28;20447;-75
2023/05/19 07:53:03;;;;;;;5.10;2.70;;;15.30;54.30;;;;;;5014777;28;20436;-74
2023/05/19 07:55:30;;;;;;;4.40;2.28;;;15.50;55.60;;;;;;5014147;28;20803;-75
2023/05/19 07:57:57;;;;;;;6.07;2.65;;;15.70;53.00;;;;;;5006107;28;20524;-74
2023/05/19 08:00:24;;;;;;;4.07;2.40;;;15.80;52.20;;;;;;5023067;28;20432;-74
2023/05/19 08:02:52;;;;;;;3.90;2.00;;;16.00;52.80;;;;;;5027229;28;20444;-74
2023/05/19 08:05:19;;;;;;;4.40;2.20;;;16.20;52.70;;;;;;5018832;28;20428;-76
2023/05/19 08:07:46;;;;;;;4.68;2.60;;;16.40;51.80;;;;;;5021166;28;20457;-75
2023/05/19 08:10:13;;;;;;;4.78;2.33;;;16.60;50.90;;;;;;5023329;28;20483;-74
2023/05/19 08:12:39;;;;;;;4.70;2.67;;;16.90;49.70;;;;;;5027070;28;20434;-75
2023/05/19 08:15:07;;;;;;;5.70;2.55;;;17.10;49.80;;;;;;5026257;28;20434;-74
2023/05/19 08:17:34;;;;;;;3.30;2.42;;;17.20;50.00;;;;;;5032868;28;20437;-76
2023/05/19 08:20:04;;;;;;;3.13;2.20;;;17.40;48.30;;;;;;5026982;28;20416;-74
2023/05/19 08:22:30;;;;;;;4.70;2.10;;;17.50;48.90;;;;;;5017951;28;20436;-76
2023/05/19 08:24:57;;;;;;;5.70;2.30;;;17.60;48.20;;;;;;5014848;28;20428;-75
2023/05/19 08:27:24;;;;;;;3.47;2.10;;;17.80;47.60;;;;;;5028910;28;20437;-75
2023/05/19 08:29:50;;;;;;;4.22;2.20;;;18.00;47.00;;;;;;5016231;28;20970;-77
2023/05/19 08:32:17;;;;;;;4.72;2.00;;;18.10;46.40;;;;;;5010052;28;20428;-75
2023/05/19 08:34:44;;;;;;;3.22;2.47;;;18.20;45.50;;;;;;5013768;28;20903;-76
2023/05/19 08:37:12;;;;;;;3.57;2.20;;;18.30;45.20;;;;;;5015660;28;20430;-77
2023/05/19 08:39:39;;;;;;;3.17;2.10;;;18.40;44.10;;;;;;5011685;28;20814;-79
2023/05/19 08:42:08;;;;;;;4.20;2.00;;;18.50;44.50;;;;;;5014078;28;20432;-76
2023/05/19 08:44:36;;;;;;;4.70;2.10;;;18.60;44.30;;;;;;5019315;28;20428;-75
2023/05/19 08:47:05;;;;;;;5.30;2.30;;;18.80;43.80;;;;;;5008846;28;20429;-75
2023/05/19 08:49:35;;;;;;;3.28;2.00;;;18.90;42.80;;;;;;5006281;28;20438;-74
2023/05/19 08:52:09;;;;;;;4.25;2.17;;;19.10;41.90;;;;;;5005888;28;20439;-75
2023/05/19 08:54:43;;;;;;;3.43;2.20;;;19.20;41.80;;;;;;5011419;28;20420;-77
2023/05/19 08:57:10;;;;;;;3.30;2.30;;;19.30;42.10;;;;;;5012411;28;20480;-78
2023/05/19 08:59:37;;;;;;;4.53;2.30;;;19.50;41.20;;;;;;5026982;28;20416;-76
2023/05/19 09:02:05;;;;;;;3.00;1.90;;;19.60;41.10;;;;;;5029406;28;20508;-75
2023/05/19 09:04:32;;;;;;;2.60;1.90;;;19.70;39.40;;;;;;5037909;28;20462;-77
2023/05/19 09:07:02;;;;;;;4.05;1.73;;;19.80;39.30;;;;;;5017040;28;20432;-78
2023/05/19 09:09:29;;;;;;;4.20;2.03;;;19.90;39.40;;;;;;5012450;28;20445;-76
2023/05/19 09:11:58;;;;;;;5.28;2.20;;;20.00;39.20;;;;;;5012078;28;20443;-76
2023/05/19 09:14:24;;;;;;;3.83;2.40;;;20.10;38.00;;;;;;5012351;28;20436;-73
2023/05/19 09:16:51;;;;;;;3.70;2.20;;;20.10;40.80;;;;;;5011315;28;20432;-73
2023/05/19 09:19:19;;;;;;;4.07;2.00;;;20.30;39.20;;;;;;5011929;28;20421;-74
2023/05/19 09:21:46;;;;;;;3.30;2.00;;;20.40;39.80;;;;;;5011403;28;20424;-71
2023/05/19 09:24:13;;;;;;;3.05;1.52;;;20.50;37.00;;;;;;5013836;28;20445;-71
2023/05/19 09:26:42;;;;;;;3.70;2.00;;;20.60;37.60;;;;;;5014321;28;20421;-72
2023/05/19 09:29:15;;;;;;;3.45;2.00;;;20.70;38.50;;;;;;5011120;28;20427;-72
2023/05/19 09:31:50;;;;;;;2.83;2.33;;;20.80;37.60;;;;;;5009063;28;20512;-75
2023/05/19 09:34:17;;;;;;;3.80;1.80;;;21.00;37.70;;;;;;5010746;28;20417;-73
2023/05/19 09:36:43;;;;;;;2.67;1.80;;;21.20;36.00;;;;;;5011723;28;21353;-74
2023/05/19 09:39:14;;;;;;;4.00;2.10;;;21.20;36.20;;;;;;5020993;28;20425;-75
2023/05/19 09:41:41;;;;;;;3.50;1.90;;;21.30;36.70;;;;;;5017399;28;20812;-72
2023/05/19 09:44:12;;;;;;;4.50;2.20;;;21.40;36.30;;;;;;5020294;28;20887;-74
2023/05/19 09:46:47;;;;;;;4.50;2.10;;;21.60;36.00;;;;;;5013854;28;20440;-75
2023/05/19 09:49:19;;;;;;;2.70;2.00;;;21.80;35.10;;;;;;5012235;28;20419;-75
2023/05/19 09:51:46;;;;;;;3.63;1.90;;;21.80;34.50;;;;;;5010964;28;20421;-74
2023/05/19 09:54:15;;;;;;;4.60;2.80;;;21.90;33.80;;;;;;5024040;28;20423;-73
2023/05/19 09:56:42;;;;;;;3.75;2.08;;;21.90;35.00;;;;;;5011570;28;20506;-73
2023/05/19 09:59:08;;;;;;;3.22;1.80;;;21.90;33.20;;;;;;5009667;28;20930;-72
2023/05/19 10:01:39;;;;;;;4.23;2.10;;;21.80;34.00;;;;;;5011985;28;20440;-72
2023/05/19 10:04:07;;;;;;;2.50;1.80;;;21.60;33.30;;;;;;5002218;28;20444;-74
2023/05/19 10:06:35;;;;;;;5.03;2.10;;;21.30;33.80;;;;;;5010526;28;20780;-72
2023/05/19 10:09:02;;;;;;;3.47;1.90;;;21.20;35.30;;;;;;5008123;28;20464;-72
2023/05/19 10:11:30;;;;;;;2.95;1.90;;;21.40;36.00;;;;;;5015032;28;20428;-72
2023/05/19 10:13:57;;;;;;;3.28;2.15;;;21.60;34.90;;;;;;5013672;28;20436;-72
2023/05/19 10:16:27;;;;;;;3.13;2.38;;;21.80;35.20;;;;;;5009690;28;20772;-76
2023/05/19 10:18:58;;;;;;;3.85;1.80;;;22.00;34.40;;;;;;5013570;28;20411;-73
2023/05/19 10:21:26;;;;;;;3.42;1.90;;;22.10;34.20;;;;;;5016817;28;20433;-71
2023/05/19 10:23:52;;;;;;;4.80;2.28;;;22.30;33.60;;;;;;5014552;28;21001;-75
2023/05/19 10:26:20;;;;;;;4.03;2.03;;;22.50;33.90;;;;;;5020128;28;20431;-75
2023/05/19 10:28:48;;;;;;;3.78;1.92;;;22.50;34.10;;;;;;5013680;28;20495;-72
2023/05/19 10:31:21;;;;;;;4.68;2.20;;;22.30;33.60;;;;;;5016725;28;20919;-75
2023/05/19 10:34:07;;;;;;;3.67;1.90;;;22.20;33.00;;;;;;5011170;28;20432;-75
2023/05/19 10:36:45;;;;;;;3.78;2.10;;;22.30;33.20;;;;;;5005688;28;20432;-72
2023/05/19 10:39:17;;;;;;;3.70;1.90;;;22.50;33.50;;;;;;5011611;28;20745;-75
2023/05/19 10:41:50;;;;;;;3.55;2.08;;;22.70;33.70;;;;;;5017143;28;20439;-74
2023/05/19 10:44:28;;;;;;;2.47;1.80;;;22.70;33.40;;;;;;5026204;28;20418;-74
2023/05/19 10:46:54;;;;;;;4.30;1.92;;;22.80;33.30;;;;;;5010309;28;20938;-72
2023/05/19 10:49:22;;;;;;;3.20;1.70;;;23.00;32.90;;;;;;5022651;28;20427;-72
2023/05/19 10:51:52;;;;;;;3.00;1.80;;;23.20;32.30;;;;;;5021629;28;20432;-73
2023/05/19 10:54:39;;;;;;;2.75;1.90;;;23.30;32.40;;;;;;5030237;28;20419;-72
2023/05/19 10:57:06;;;;;;;3.97;2.07;;;23.40;33.80;;;;;;5005057;28;20823;-74
2023/05/19 10:59:36;;;;;;;3.40;2.30;;;23.60;32.10;;;;;;5008184;28;20479;-72
2023/05/19 11:02:06;;;;;;;3.05;2.00;;;23.50;32.10;;;;;;5011844;28;20988;-71
2023/05/19 11:04:40;;;;;;;2.80;2.30;;;23.40;31.20;;;;;;5015269;28;20748;-74
2023/05/19 11:07:10;;;;;;;3.00;2.20;;;23.30;31.50;;;;;;5012843;28;20806;-74
2023/05/19 11:09:40;;;;;;;3.50;2.60;;;23.40;31.60;;;;;;4996105;28;21364;-72
2023/05/19 11:12:09;;;;;;;4.25;2.25;;;23.60;31.30;;;;;;5016543;28;21010;-72
2023/05/19 11:14:36;;;;;;;2.50;2.00;;;23.60;31.60;;;;;;5017771;28;20435;-72
2023/05/19 11:17:04;;;;;;;3.70;2.35;;;23.60;31.80;;;;;;5008982;28;20827;-72
2023/05/19 11:19:31;;;;;;;3.17;2.30;;;23.50;31.30;;;;;;5011110;28;20435;-72
2023/05/19 11:22:08;;;;;;;3.05;2.17;;;23.70;31.50;;;;;;5023445;28;20419;-72
2023/05/19 11:24:44;;;;;;;4.22;2.00;;;24.10;29.50;;;;;;5010290;28;20424;-72
2023/05/19 11:27:26;;;;;;;3.17;2.33;;;23.90;29.50;;;;;;5010210;28;20468;-73
2023/05/19 11:29:54;;;;;;;3.50;2.40;;;23.60;29.40;;;;;;5015716;28;20433;-73
2023/05/19 11:32:21;;;;;;;4.22;2.80;;;23.40;30.00;;;;;;5019932;28;20417;-72
2023/05/19 11:34:49;;;;;;;3.60;2.22;;;23.40;30.00;;;;;;5018054;28;20459;-72
2023/05/19 11:37:16;;;;;;;3.40;2.10;;;23.70;30.80;;;;;;5021173;28;20427;-71
2023/05/19 11:39:45;;;;;;;2.70;2.10;;;24.10;29.10;;;;;;5019126;28;20484;-72
2023/05/19 11:42:12;;;;;;;2.70;2.03;;;24.40;29.00;;;;;;5016499;28;20413;-73
2023/05/19 11:44:39;;;;;;;3.17;2.13;;;24.70;28.20;;;;;;5028868;28;20434;-69
2023/05/19 11:47:06;;;;;;;2.22;1.85;;;25.10;28.30;;;;;;5037736;28;20442;-70
2023/05/19 11:49:33;;;;;;;3.35;1.80;;;25.50;27.50;;;;;;5028396;28;21162;-71
2023/05/19 11:52:01;;;;;;;2.08;1.40;;;25.90;27.50;;;;;;5040327;28;20423;-71
2023/05/19 11:54:32;;;;;;;2.70;1.58;;;26.20;27.80;;;;;;5032340;28;20490;-70
2023/05/19 11:57:02;;;;;;;3.25;1.60;;;26.10;27.40;;;;;;5032024;28;20467;-71
2023/05/19 11:59:33;;;;;;;2.10;1.33;;;26.30;27.60;;;;;;5030733;28;20438;-73
2023/05/19 12:02:03;;;;;;;2.50;1.40;;;26.40;26.40;;;;;;5017037;28;20799;-72
2023/05/19 12:04:30;;;;;;;2.33;1.48;;;26.40;26.80;;;;;;5029260;28;20440;-72
2023/05/19 12:06:57;;;;;;;2.80;1.67;;;26.40;26.80;;;;;;5019428;28;20705;-74
2023/05/19 12:09:24;;;;;;;2.95;1.92;;;26.60;26.60;;;;;;5024984;28;20815;-72
2023/05/19 12:11:51;;;;;;;3.00;2.20;;;26.70;28.20;;;;;;5012339;28;20432;-74
2023/05/19 12:14:20;;;;;;;2.67;1.80;;;27.00;26.80;;;;;;5016059;28;20440;-74
2023/05/19 12:16:46;;;;;;;3.17;1.70;;;27.40;26.80;;;;;;5018467;28;20436;-71
2023/05/19 12:19:13;;;;;;;3.45;1.50;;;28.00;26.60;;;;;;5016991;28;20427;-73
2023/05/19 12:21:41;;;;;;;2.40;1.30;;;28.40;25.40;;;;;;5013700;28;20436;-72
2023/05/19 12:24:08;;;;;;;3.30;1.50;;;28.40;24.90;;;;;;5014445;28;20435;-72
2023/05/19 12:26:35;;;;;;;1.90;1.40;;;28.20;24.60;;;;;;5014862;28;20500;-71
2023/05/19 12:29:05;;;;;;;2.25;1.63;;;28.30;25.60;;;;;;5011337;28;20538;-72
2023/05/19 12:31:34;;;;;;;2.70;1.90;;;28.40;24.90;;;;;;5023844;28;20804;-73
2023/05/19 12:34:01;;;;;;;3.45;1.50;;;28.30;24.90;;;;;;5021664;28;20417;-71
2023/05/19 12:36:29;;;;;;;3.33;1.38;;;28.10;24.90;;;;;;5025012;28;20885;-72
2023/05/19 12:38:56;;;;;;;3.03;1.27;;;27.80;25.10;;;;;;5015151;28;20484;-72
2023/05/19 12:41:26;;;;;;;4.93;1.90;;;27.60;26.00;;;;;;5011337;28;20441;-71
2023/05/19 12:43:53;;;;;;;3.80;1.60;;;27.60;26.00;;;;;;5016702;28;20992;-72
2023/05/19 12:46:19;;;;;;;2.30;1.20;;;27.60;25.60;;;;;;5033340;28;20410;-71
2023/05/19 12:48:48;;;;;;;3.30;1.60;;;27.30;24.90;;;;;;5010740;28;20439;-71
2023/05/19 12:51:18;;;;;;;2.88;1.60;;;26.70;25.20;;;;;;5012908;28;20425;-72
2023/05/19 12:53:46;;;;;;;2.60;1.70;;;26.50;26.20;;;;;;5008263;28;20436;-73